sensor_id;sensor_type;location;lat;lon;timestamp;P1;durP1;ratioP1;P2;durP2;ratioP2
14738;SDS011;7461;52.440;13.540;2022-08-21T00:00:19;12.98;;;12.18;;
14738;SDS011;7461;52.440;13.540;2022-08-21T00:02:50;13.20;;;12.20;;
14738;SDS011;7461;52.440;13.540;2022-08-21T00:05:19;13.65;;;12.63;;
14738;SDS011;7461;52.440;13.540;2022-08-21T00:07:46;14.63;;;13.52;;
14738;SDS011;7461;52.440;13.540;2022-08-21T00:10:14;12.77;;;11.77;;
14738;SDS011;7461;52.440;13.540;2022-08-21T00:12:42;12.10;;;11.25;;
14738;SDS011;7461;52.440;13.540;2022-08-21T00:15:11;12.90;;;12.05;;
14738;SDS011;7461;52.440;13.540;2022-08-21T00:17:39;11.90;;;10.95;;
14738;SDS011;7461;52.440;13.540;2022-08-21T00:20:07;12.90;;;11.93;;
14738;SDS011;7461;52.440;13.540;2022-08-21T00:22:35;12.50;;;11.55;;
14738;SDS011;7461;52.440;13.540;2022-08-21T00:25:03;12.68;;;11.75;;
14738;SDS011;7461;52.440;13.540;2022-08-21T00:27:33;12.23;;;11.43;;
14738;SDS011;7461;52.440;13.540;2022-08-21T00:30:00;12.10;;;11.27;;
14738;SDS011;7461;52.440;13.540;2022-08-21T00:32:28;12.93;;;11.90;;
14738;SDS011;7461;52.440;13.540;2022-08-21T00:34:55;12.20;;;11.48;;
14738;SDS011;7461;52.440;13.540;2022-08-21T00:37:22;11.23;;;10.48;;
14738;SDS011;7461;52.440;13.540;2022-08-21T00:39:49;11.50;;;10.80;;
14738;SDS011;7461;52.440;13.540;2022-08-21T00:42:16;10.85;;;10.15;;
14738;SDS011;7461;52.440;13.540;2022-08-21T00:44:46;12.13;;;11.05;;
14738;SDS011;7461;52.440;13.540;2022-08-21T00:47:14;11.68;;;10.98;;
14738;SDS011;7461;52.440;13.540;2022-08-21T00:49:41;11.23;;;10.27;;
14738;SDS011;7461;52.440;13.540;2022-08-21T00:52:09;10.20;;;9.68;;
14738;SDS011;7461;52.440;13.540;2022-08-21T00:54:41;10.70;;;10.10;;
14738;SDS011;7461;52.440;13.540;2022-08-21T00:57:10;11.00;;;10.10;;
14738;SDS011;7461;52.440;13.540;2022-08-21T00:59:42;10.35;;;9.82;;
14738;SDS011;7461;52.440;13.540;2022-08-21T01:02:13;10.32;;;9.73;;
14738;SDS011;7461;52.440;13.540;2022-08-21T01:04:40;10.88;;;10.13;;
14738;SDS011;7461;52.440;13.540;2022-08-21T01:07:07;10.70;;;9.85;;
14738;SDS011;7461;52.440;13.540;2022-08-21T01:09:34;10.32;;;9.68;;
14738;SDS011;7461;52.440;13.540;2022-08-21T01:12:02;11.40;;;10.70;;
14738;SDS011;7461;52.440;13.540;2022-08-21T01:14:30;10.15;;;9.32;;
14738;SDS011;7461;52.440;13.540;2022-08-21T01:16:58;10.70;;;9.82;;
14738;SDS011;7461;52.440;13.540;2022-08-21T01:19:29;11.30;;;10.45;;
14738;SDS011;7461;52.440;13.540;2022-08-21T01:21:57;9.60;;;9.00;;
14738;SDS011;7461;52.440;13.540;2022-08-21T01:24:25;11.15;;;10.35;;
14738;SDS011;7461;52.440;13.540;2022-08-21T01:26:52;11.18;;;10.45;;
14738;SDS011;7461;52.440;13.540;2022-08-21T01:29:23;10.95;;;10.18;;
14738;SDS011;7461;52.440;13.540;2022-08-21T01:31:57;10.23;;;9.57;;
14738;SDS011;7461;52.440;13.540;2022-08-21T01:34:24;9.55;;;8.75;;
14738;SDS011;7461;52.440;13.540;2022-08-21T01:36:51;9.32;;;8.55;;
14738;SDS011;7461;52.440;13.540;2022-08-21T01:39:20;9.80;;;9.25;;
14738;SDS011;7461;52.440;13.540;2022-08-21T01:41:47;9.50;;;8.90;;
14738;SDS011;7461;52.440;13.540;2022-08-21T01:44:13;9.25;;;8.65;;
14738;SDS011;7461;52.440;13.540;2022-08-21T01:46:40;10.70;;;9.95;;
14738;SDS011;7461;52.440;13.540;2022-08-21T01:49:07;11.15;;;10.35;;
14738;SDS011;7461;52.440;13.540;2022-08-21T01:51:34;10.05;;;9.45;;
14738;SDS011;7461;52.440;13.540;2022-08-21T01:54:01;9.50;;;8.85;;
14738;SDS011;7461;52.440;13.540;2022-08-21T01:56:34;9.43;;;8.82;;
14738;SDS011;7461;52.440;13.540;2022-08-21T01:59:02;10.55;;;9.95;;
14738;SDS011;7461;52.440;13.540;2022-08-21T02:01:29;10.73;;;9.57;;
14738;SDS011;7461;52.440;13.540;2022-08-21T02:03:56;8.63;;;8.20;;
14738;SDS011;7461;52.440;13.540;2022-08-21T02:06:24;9.48;;;8.68;;
14738;SDS011;7461;52.440;13.540;2022-08-21T02:08:52;9.82;;;8.90;;
14738;SDS011;7461;52.440;13.540;2022-08-21T02:11:19;8.50;;;8.00;;
14738;SDS011;7461;52.440;13.540;2022-08-21T02:13:47;7.88;;;7.22;;
14738;SDS011;7461;52.440;13.540;2022-08-21T02:16:14;8.15;;;7.60;;
14738;SDS011;7461;52.440;13.540;2022-08-21T02:18:42;7.68;;;6.97;;
14738;SDS011;7461;52.440;13.540;2022-08-21T02:21:09;7.13;;;6.55;;
14738;SDS011;7461;52.440;13.540;2022-08-21T02:23:35;7.18;;;6.57;;
14738;SDS011;7461;52.440;13.540;2022-08-21T02:26:03;6.85;;;6.50;;
14738;SDS011;7461;52.440;13.540;2022-08-21T02:28:31;7.50;;;7.10;;
14738;SDS011;7461;52.440;13.540;2022-08-21T02:31:00;6.85;;;6.45;;
14738;SDS011;7461;52.440;13.540;2022-08-21T02:33:28;7.25;;;6.75;;
14738;SDS011;7461;52.440;13.540;2022-08-21T02:35:55;6.95;;;6.63;;
14738;SDS011;7461;52.440;13.540;2022-08-21T02:38:24;7.30;;;6.90;;
14738;SDS011;7461;52.440;13.540;2022-08-21T02:40:53;7.47;;;6.35;;
14738;SDS011;7461;52.440;13.540;2022-08-21T02:43:22;7.88;;;7.07;;
14738;SDS011;7461;52.440;13.540;2022-08-21T02:45:51;8.40;;;6.80;;
14738;SDS011;7461;52.440;13.540;2022-08-21T02:48:21;6.95;;;6.55;;
14738;SDS011;7461;52.440;13.540;2022-08-21T02:50:52;7.20;;;6.80;;
14738;SDS011;7461;52.440;13.540;2022-08-21T02:53:20;7.10;;;6.70;;
14738;SDS011;7461;52.440;13.540;2022-08-21T02:55:48;7.78;;;7.38;;
14738;SDS011;7461;52.440;13.540;2022-08-21T02:58:17;8.13;;;7.35;;
14738;SDS011;7461;52.440;13.540;2022-08-21T03:00:45;8.38;;;7.97;;
14738;SDS011;7461;52.440;13.540;2022-08-21T03:03:12;8.48;;;7.47;;
14738;SDS011;7461;52.440;13.540;2022-08-21T03:05:41;6.22;;;5.90;;
14738;SDS011;7461;52.440;13.540;2022-08-21T03:08:09;8.15;;;7.53;;
14738;SDS011;7461;52.440;13.540;2022-08-21T03:10:38;8.07;;;7.28;;
14738;SDS011;7461;52.440;13.540;2022-08-21T03:13:07;7.68;;;7.07;;
14738;SDS011;7461;52.440;13.540;2022-08-21T03:15:35;7.80;;;7.15;;
14738;SDS011;7461;52.440;13.540;2022-08-21T03:18:02;7.63;;;6.72;;
14738;SDS011;7461;52.440;13.540;2022-08-21T03:20:30;7.32;;;6.72;;
14738;SDS011;7461;52.440;13.540;2022-08-21T03:22:59;8.70;;;7.07;;
14738;SDS011;7461;52.440;13.540;2022-08-21T03:25:28;7.18;;;6.60;;
14738;SDS011;7461;52.440;13.540;2022-08-21T03:27:56;8.05;;;7.45;;
14738;SDS011;7461;52.440;13.540;2022-08-21T03:30:24;7.28;;;6.80;;
14738;SDS011;7461;52.440;13.540;2022-08-21T03:32:51;7.65;;;6.93;;
14738;SDS011;7461;52.440;13.540;2022-08-21T03:35:18;7.28;;;6.57;;
14738;SDS011;7461;52.440;13.540;2022-08-21T03:37:45;7.32;;;6.75;;
14738;SDS011;7461;52.440;13.540;2022-08-21T03:40:16;6.00;;;5.22;;
14738;SDS011;7461;52.440;13.540;2022-08-21T03:42:45;6.43;;;5.80;;
14738;SDS011;7461;52.440;13.540;2022-08-21T03:45:13;7.25;;;6.63;;
14738;SDS011;7461;52.440;13.540;2022-08-21T03:47:50;6.55;;;6.07;;
14738;SDS011;7461;52.440;13.540;2022-08-21T03:50:17;6.13;;;5.80;;
14738;SDS011;7461;52.440;13.540;2022-08-21T03:52:44;5.55;;;5.15;;
14738;SDS011;7461;52.440;13.540;2022-08-21T03:55:11;5.75;;;5.28;;
14738;SDS011;7461;52.440;13.540;2022-08-21T03:57:40;7.03;;;6.35;;
14738;SDS011;7461;52.440;13.540;2022-08-21T04:00:07;6.18;;;5.68;;
14738;SDS011;7461;52.440;13.540;2022-08-21T04:02:37;5.20;;;4.85;;
14738;SDS011;7461;52.440;13.540;2022-08-21T04:05:04;6.20;;;5.70;;
14738;SDS011;7461;52.440;13.540;2022-08-21T04:07:32;6.50;;;6.07;;
14738;SDS011;7461;52.440;13.540;2022-08-21T04:09:59;5.35;;;4.85;;
14738;SDS011;7461;52.440;13.540;2022-08-21T04:12:25;6.35;;;5.75;;
14738;SDS011;7461;52.440;13.540;2022-08-21T04:14:54;6.82;;;6.18;;
14738;SDS011;7461;52.440;13.540;2022-08-21T04:17:21;6.72;;;6.25;;
14738;SDS011;7461;52.440;13.540;2022-08-21T04:19:48;6.45;;;4.90;;
14738;SDS011;7461;52.440;13.540;2022-08-21T04:22:14;5.65;;;5.32;;
14738;SDS011;7461;52.440;13.540;2022-08-21T04:24:42;6.55;;;5.60;;
14738;SDS011;7461;52.440;13.540;2022-08-21T04:27:09;5.30;;;4.95;;
14738;SDS011;7461;52.440;13.540;2022-08-21T04:29:36;4.93;;;4.50;;
14738;SDS011;7461;52.440;13.540;2022-08-21T04:32:04;5.40;;;5.00;;
14738;SDS011;7461;52.440;13.540;2022-08-21T04:34:32;9.52;;;5.65;;
14738;SDS011;7461;52.440;13.540;2022-08-21T04:36:58;5.20;;;4.75;;
14738;SDS011;7461;52.440;13.540;2022-08-21T04:39:25;6.97;;;5.32;;
14738;SDS011;7461;52.440;13.540;2022-08-21T04:41:52;6.18;;;5.68;;
14738;SDS011;7461;52.440;13.540;2022-08-21T04:44:19;5.47;;;5.05;;
14738;SDS011;7461;52.440;13.540;2022-08-21T04:46:46;5.03;;;4.72;;
14738;SDS011;7461;52.440;13.540;2022-08-21T04:49:14;6.80;;;6.13;;
14738;SDS011;7461;52.440;13.540;2022-08-21T04:51:41;4.82;;;4.35;;
14738;SDS011;7461;52.440;13.540;2022-08-21T04:54:09;5.57;;;4.53;;
14738;SDS011;7461;52.440;13.540;2022-08-21T04:56:41;4.45;;;4.13;;
14738;SDS011;7461;52.440;13.540;2022-08-21T04:59:12;7.88;;;4.90;;
14738;SDS011;7461;52.440;13.540;2022-08-21T05:01:44;5.40;;;5.10;;
14738;SDS011;7461;52.440;13.540;2022-08-21T05:04:12;5.18;;;4.60;;
14738;SDS011;7461;52.440;13.540;2022-08-21T05:06:45;6.30;;;5.70;;
14738;SDS011;7461;52.440;13.540;2022-08-21T05:09:14;6.32;;;5.30;;
14738;SDS011;7461;52.440;13.540;2022-08-21T05:11:42;5.45;;;4.82;;
14738;SDS011;7461;52.440;13.540;2022-08-21T05:14:10;5.82;;;4.93;;
14738;SDS011;7461;52.440;13.540;2022-08-21T05:16:37;5.00;;;4.57;;
14738;SDS011;7461;52.440;13.540;2022-08-21T05:19:05;4.85;;;4.50;;
14738;SDS011;7461;52.440;13.540;2022-08-21T05:21:34;8.27;;;4.28;;
14738;SDS011;7461;52.440;13.540;2022-08-21T05:24:02;5.22;;;4.70;;
14738;SDS011;7461;52.440;13.540;2022-08-21T05:26:29;6.05;;;3.65;;
14738;SDS011;7461;52.440;13.540;2022-08-21T05:28:57;4.43;;;3.22;;
14738;SDS011;7461;52.440;13.540;2022-08-21T05:31:24;5.75;;;4.35;;
14738;SDS011;7461;52.440;13.540;2022-08-21T05:33:51;3.53;;;3.17;;
14738;SDS011;7461;52.440;13.540;2022-08-21T05:36:18;4.47;;;4.18;;
14738;SDS011;7461;52.440;13.540;2022-08-21T05:38:46;6.97;;;6.30;;
14738;SDS011;7461;52.440;13.540;2022-08-21T05:41:13;6.68;;;6.18;;
14738;SDS011;7461;52.440;13.540;2022-08-21T05:43:40;7.05;;;5.50;;
14738;SDS011;7461;52.440;13.540;2022-08-21T05:46:07;4.63;;;4.22;;
14738;SDS011;7461;52.440;13.540;2022-08-21T05:48:35;3.85;;;3.42;;
14738;SDS011;7461;52.440;13.540;2022-08-21T05:51:04;4.07;;;3.40;;
14738;SDS011;7461;52.440;13.540;2022-08-21T05:53:32;4.65;;;4.35;;
14738;SDS011;7461;52.440;13.540;2022-08-21T05:56:00;3.38;;;2.83;;
14738;SDS011;7461;52.440;13.540;2022-08-21T05:58:29;4.07;;;3.58;;
14738;SDS011;7461;52.440;13.540;2022-08-21T06:00:57;5.53;;;3.50;;
14738;SDS011;7461;52.440;13.540;2022-08-21T06:03:25;4.82;;;3.70;;
14738;SDS011;7461;52.440;13.540;2022-08-21T06:05:54;4.32;;;3.70;;
14738;SDS011;7461;52.440;13.540;2022-08-21T06:08:22;4.05;;;3.70;;
14738;SDS011;7461;52.440;13.540;2022-08-21T06:10:49;3.90;;;3.58;;
14738;SDS011;7461;52.440;13.540;2022-08-21T06:13:19;5.20;;;3.88;;
14738;SDS011;7461;52.440;13.540;2022-08-21T06:15:47;4.57;;;3.60;;
14738;SDS011;7461;52.440;13.540;2022-08-21T06:18:15;4.15;;;3.58;;
14738;SDS011;7461;52.440;13.540;2022-08-21T06:20:43;3.65;;;3.45;;
14738;SDS011;7461;52.440;13.540;2022-08-21T06:23:10;4.20;;;3.80;;
14738;SDS011;7461;52.440;13.540;2022-08-21T06:25:37;4.80;;;4.28;;
14738;SDS011;7461;52.440;13.540;2022-08-21T06:28:06;4.68;;;4.22;;
14738;SDS011;7461;52.440;13.540;2022-08-21T06:30:37;4.43;;;3.88;;
14738;SDS011;7461;52.440;13.540;2022-08-21T06:33:05;4.05;;;3.67;;
14738;SDS011;7461;52.440;13.540;2022-08-21T06:35:33;6.18;;;3.50;;
14738;SDS011;7461;52.440;13.540;2022-08-21T06:38:01;6.57;;;3.38;;
14738;SDS011;7461;52.440;13.540;2022-08-21T06:40:29;7.93;;;3.80;;
14738;SDS011;7461;52.440;13.540;2022-08-21T06:43:04;5.25;;;3.78;;
14738;SDS011;7461;52.440;13.540;2022-08-21T06:45:32;5.50;;;3.42;;
14738;SDS011;7461;52.440;13.540;2022-08-21T06:48:00;6.65;;;3.20;;
14738;SDS011;7461;52.440;13.540;2022-08-21T06:50:28;2.95;;;2.75;;
14738;SDS011;7461;52.440;13.540;2022-08-21T06:52:59;4.05;;;3.03;;
14738;SDS011;7461;52.440;13.540;2022-08-21T06:55:28;5.72;;;3.13;;
14738;SDS011;7461;52.440;13.540;2022-08-21T06:57:55;3.80;;;2.85;;
14738;SDS011;7461;52.440;13.540;2022-08-21T07:00:22;3.25;;;2.63;;
14738;SDS011;7461;52.440;13.540;2022-08-21T07:02:49;4.75;;;3.10;;
14738;SDS011;7461;52.440;13.540;2022-08-21T07:05:17;3.05;;;2.85;;
14738;SDS011;7461;52.440;13.540;2022-08-21T07:07:44;4.97;;;2.60;;
14738;SDS011;7461;52.440;13.540;2022-08-21T07:10:12;6.78;;;5.80;;
14738;SDS011;7461;52.440;13.540;2022-08-21T07:12:38;5.53;;;4.78;;
14738;SDS011;7461;52.440;13.540;2022-08-21T07:15:06;4.38;;;3.58;;
14738;SDS011;7461;52.440;13.540;2022-08-21T07:17:34;3.67;;;2.88;;
14738;SDS011;7461;52.440;13.540;2022-08-21T07:20:01;4.03;;;2.80;;
14738;SDS011;7461;52.440;13.540;2022-08-21T07:22:29;3.53;;;3.22;;
14738;SDS011;7461;52.440;13.540;2022-08-21T07:24:57;5.10;;;3.22;;
14738;SDS011;7461;52.440;13.540;2022-08-21T07:27:24;4.75;;;3.22;;
14738;SDS011;7461;52.440;13.540;2022-08-21T07:29:51;6.05;;;3.15;;
14738;SDS011;7461;52.440;13.540;2022-08-21T07:32:18;4.90;;;2.55;;
14738;SDS011;7461;52.440;13.540;2022-08-21T07:34:45;4.95;;;2.88;;
14738;SDS011;7461;52.440;13.540;2022-08-21T07:37:12;6.95;;;2.92;;
14738;SDS011;7461;52.440;13.540;2022-08-21T07:39:40;4.55;;;2.40;;
14738;SDS011;7461;52.440;13.540;2022-08-21T07:42:07;3.28;;;2.92;;
14738;SDS011;7461;52.440;13.540;2022-08-21T07:44:34;7.13;;;2.83;;
14738;SDS011;7461;52.440;13.540;2022-08-21T07:47:01;4.80;;;2.53;;
14738;SDS011;7461;52.440;13.540;2022-08-21T07:49:28;3.22;;;2.28;;
14738;SDS011;7461;52.440;13.540;2022-08-21T07:51:56;3.08;;;2.15;;
14738;SDS011;7461;52.440;13.540;2022-08-21T07:54:24;6.28;;;3.03;;
14738;SDS011;7461;52.440;13.540;2022-08-21T07:56:52;2.53;;;2.33;;
14738;SDS011;7461;52.440;13.540;2022-08-21T07:59:19;5.00;;;2.47;;
14738;SDS011;7461;52.440;13.540;2022-08-21T08:01:46;3.00;;;2.05;;
14738;SDS011;7461;52.440;13.540;2022-08-21T08:04:13;5.47;;;2.58;;
14738;SDS011;7461;52.440;13.540;2022-08-21T08:06:40;2.40;;;2.22;;
14738;SDS011;7461;52.440;13.540;2022-08-21T08:09:07;3.92;;;2.25;;
14738;SDS011;7461;52.440;13.540;2022-08-21T08:11:35;2.33;;;2.13;;
14738;SDS011;7461;52.440;13.540;2022-08-21T08:14:09;2.88;;;2.20;;
14738;SDS011;7461;52.440;13.540;2022-08-21T08:16:36;3.90;;;2.53;;
14738;SDS011;7461;52.440;13.540;2022-08-21T08:19:03;2.85;;;1.75;;
14738;SDS011;7461;52.440;13.540;2022-08-21T08:21:30;2.90;;;1.90;;
14738;SDS011;7461;52.440;13.540;2022-08-21T08:23:58;2.22;;;2.03;;
14738;SDS011;7461;52.440;13.540;2022-08-21T08:26:25;3.50;;;2.45;;
14738;SDS011;7461;52.440;13.540;2022-08-21T08:28:52;2.35;;;1.45;;
14738;SDS011;7461;52.440;13.540;2022-08-21T08:31:21;3.75;;;1.90;;
14738;SDS011;7461;52.440;13.540;2022-08-21T08:33:48;3.67;;;2.72;;
14738;SDS011;7461;52.440;13.540;2022-08-21T08:36:15;3.63;;;2.40;;
14738;SDS011;7461;52.440;13.540;2022-08-21T08:38:44;2.15;;;1.75;;
14738;SDS011;7461;52.440;13.540;2022-08-21T08:41:12;2.05;;;1.90;;
14738;SDS011;7461;52.440;13.540;2022-08-21T08:43:40;3.95;;;2.00;;
14738;SDS011;7461;52.440;13.540;2022-08-21T08:46:15;4.55;;;2.38;;
14738;SDS011;7461;52.440;13.540;2022-08-21T08:48:47;2.15;;;1.95;;
14738;SDS011;7461;52.440;13.540;2022-08-21T08:51:19;6.88;;;2.75;;
14738;SDS011;7461;52.440;13.540;2022-08-21T08:53:51;3.20;;;2.53;;
14738;SDS011;7461;52.440;13.540;2022-08-21T08:56:23;3.00;;;2.67;;
14738;SDS011;7461;52.440;13.540;2022-08-21T08:58:56;4.32;;;3.10;;
14738;SDS011;7461;52.440;13.540;2022-08-21T09:01:27;6.00;;;4.95;;
14738;SDS011;7461;52.440;13.540;2022-08-21T09:03:55;3.38;;;3.10;;
14738;SDS011;7461;52.440;13.540;2022-08-21T09:06:33;2.75;;;2.17;;
14738;SDS011;7461;52.440;13.540;2022-08-21T09:09:11;2.95;;;2.63;;
14738;SDS011;7461;52.440;13.540;2022-08-21T09:11:48;2.90;;;1.80;;
14738;SDS011;7461;52.440;13.540;2022-08-21T09:14:23;4.28;;;2.70;;
14738;SDS011;7461;52.440;13.540;2022-08-21T09:17:01;3.50;;;2.25;;
14738;SDS011;7461;52.440;13.540;2022-08-21T09:19:43;4.10;;;1.60;;
14738;SDS011;7461;52.440;13.540;2022-08-21T09:22:28;3.22;;;2.40;;
14738;SDS011;7461;52.440;13.540;2022-08-21T09:25:07;3.00;;;1.80;;
14738;SDS011;7461;52.440;13.540;2022-08-21T09:27:36;5.05;;;1.95;;
14738;SDS011;7461;52.440;13.540;2022-08-21T09:30:05;3.33;;;2.53;;
14738;SDS011;7461;52.440;13.540;2022-08-21T09:32:36;2.58;;;2.20;;
14738;SDS011;7461;52.440;13.540;2022-08-21T09:35:06;4.63;;;3.03;;
14738;SDS011;7461;52.440;13.540;2022-08-21T09:37:44;2.20;;;1.88;;
14738;SDS011;7461;52.440;13.540;2022-08-21T09:40:15;2.92;;;1.92;;
14738;SDS011;7461;52.440;13.540;2022-08-21T09:42:56;4.25;;;2.58;;
14738;SDS011;7461;52.440;13.540;2022-08-21T09:45:24;3.92;;;2.25;;
14738;SDS011;7461;52.440;13.540;2022-08-21T09:47:51;4.88;;;2.40;;
14738;SDS011;7461;52.440;13.540;2022-08-21T09:50:20;3.05;;;2.15;;
14738;SDS011;7461;52.440;13.540;2022-08-21T09:52:49;3.65;;;3.38;;
14738;SDS011;7461;52.440;13.540;2022-08-21T09:55:21;3.72;;;3.42;;
14738;SDS011;7461;52.440;13.540;2022-08-21T09:58:13;6.57;;;4.03;;
14738;SDS011;7461;52.440;13.540;2022-08-21T10:00:40;6.40;;;4.40;;
14738;SDS011;7461;52.440;13.540;2022-08-21T10:03:12;8.85;;;5.22;;
14738;SDS011;7461;52.440;13.540;2022-08-21T10:05:50;5.20;;;4.70;;
14738;SDS011;7461;52.440;13.540;2022-08-21T10:08:22;4.50;;;2.70;;
14738;SDS011;7461;52.440;13.540;2022-08-21T10:10:51;3.40;;;2.38;;
14738;SDS011;7461;52.440;13.540;2022-08-21T10:13:21;2.40;;;1.88;;
14738;SDS011;7461;52.440;13.540;2022-08-21T10:16:05;4.47;;;2.45;;
14738;SDS011;7461;52.440;13.540;2022-08-21T10:18:41;4.75;;;2.75;;
14738;SDS011;7461;52.440;13.540;2022-08-21T10:21:16;3.55;;;2.55;;
14738;SDS011;7461;52.440;13.540;2022-08-21T10:23:53;4.47;;;2.00;;
14738;SDS011;7461;52.440;13.540;2022-08-21T10:26:31;2.70;;;2.13;;
14738;SDS011;7461;52.440;13.540;2022-08-21T10:29:10;2.15;;;1.95;;
14738;SDS011;7461;52.440;13.540;2022-08-21T10:31:46;2.38;;;1.98;;
14738;SDS011;7461;52.440;13.540;2022-08-21T10:34:24;2.40;;;2.20;;
14738;SDS011;7461;52.440;13.540;2022-08-21T10:37:05;3.28;;;2.70;;
14738;SDS011;7461;52.440;13.540;2022-08-21T10:39:44;3.17;;;2.05;;
14738;SDS011;7461;52.440;13.540;2022-08-21T10:42:22;2.38;;;2.17;;
14738;SDS011;7461;52.440;13.540;2022-08-21T10:45:05;3.22;;;2.10;;
14738;SDS011;7461;52.440;13.540;2022-08-21T10:47:38;2.95;;;2.20;;
14738;SDS011;7461;52.440;13.540;2022-08-21T10:50:12;5.95;;;2.47;;
14738;SDS011;7461;52.440;13.540;2022-08-21T10:52:50;2.80;;;2.17;;
14738;SDS011;7461;52.440;13.540;2022-08-21T10:55:31;4.40;;;2.45;;
14738;SDS011;7461;52.440;13.540;2022-08-21T10:58:01;4.72;;;2.33;;
14738;SDS011;7461;52.440;13.540;2022-08-21T11:00:35;3.05;;;2.65;;
14738;SDS011;7461;52.440;13.540;2022-08-21T11:03:08;5.43;;;2.65;;
14738;SDS011;7461;52.440;13.540;2022-08-21T11:05:40;30.30;;;27.60;;
14738;SDS011;7461;52.440;13.540;2022-08-21T11:08:11;7.93;;;7.18;;
14738;SDS011;7461;52.440;13.540;2022-08-21T11:10:42;4.15;;;3.67;;
14738;SDS011;7461;52.440;13.540;2022-08-21T11:13:14;5.00;;;4.03;;
14738;SDS011;7461;52.440;13.540;2022-08-21T11:15:47;2.80;;;2.22;;
14738;SDS011;7461;52.440;13.540;2022-08-21T11:18:21;2.10;;;1.50;;
14738;SDS011;7461;52.440;13.540;2022-08-21T11:20:54;2.60;;;2.40;;
14738;SDS011;7461;52.440;13.540;2022-08-21T11:23:31;3.20;;;2.47;;
14738;SDS011;7461;52.440;13.540;2022-08-21T11:26:05;2.15;;;1.95;;
14738;SDS011;7461;52.440;13.540;2022-08-21T11:28:36;3.42;;;1.60;;
14738;SDS011;7461;52.440;13.540;2022-08-21T11:31:12;5.00;;;2.67;;
14738;SDS011;7461;52.440;13.540;2022-08-21T11:33:53;3.88;;;1.77;;
14738;SDS011;7461;52.440;13.540;2022-08-21T11:36:32;2.25;;;1.80;;
14738;SDS011;7461;52.440;13.540;2022-08-21T11:39:10;3.45;;;2.28;;
14738;SDS011;7461;52.440;13.540;2022-08-21T11:41:47;3.63;;;2.10;;
14738;SDS011;7461;52.440;13.540;2022-08-21T11:44:23;2.15;;;1.80;;
14738;SDS011;7461;52.440;13.540;2022-08-21T11:47:05;3.10;;;2.17;;
14738;SDS011;7461;52.440;13.540;2022-08-21T11:49:46;2.83;;;1.75;;
14738;SDS011;7461;52.440;13.540;2022-08-21T11:52:23;5.18;;;2.75;;
14738;SDS011;7461;52.440;13.540;2022-08-21T11:54:55;2.13;;;1.95;;
14738;SDS011;7461;52.440;13.540;2022-08-21T11:57:27;4.07;;;2.35;;
14738;SDS011;7461;52.440;13.540;2022-08-21T11:59:59;2.65;;;2.45;;
14738;SDS011;7461;52.440;13.540;2022-08-21T12:02:33;2.50;;;2.30;;
14738;SDS011;7461;52.440;13.540;2022-08-21T12:05:03;3.08;;;2.88;;
14738;SDS011;7461;52.440;13.540;2022-08-21T12:07:34;2.40;;;2.20;;
14738;SDS011;7461;52.440;13.540;2022-08-21T12:10:05;2.67;;;2.05;;
14738;SDS011;7461;52.440;13.540;2022-08-21T12:12:34;2.33;;;2.13;;
14738;SDS011;7461;52.440;13.540;2022-08-21T12:15:04;3.47;;;2.10;;
14738;SDS011;7461;52.440;13.540;2022-08-21T12:17:51;1.63;;;1.52;;
14738;SDS011;7461;52.440;13.540;2022-08-21T12:20:34;1.65;;;1.40;;
14738;SDS011;7461;52.440;13.540;2022-08-21T12:23:16;3.10;;;2.53;;
14738;SDS011;7461;52.440;13.540;2022-08-21T12:25:47;2.20;;;1.30;;
14738;SDS011;7461;52.440;13.540;2022-08-21T12:28:27;2.35;;;1.65;;
14738;SDS011;7461;52.440;13.540;2022-08-21T12:30:57;3.13;;;2.55;;
14738;SDS011;7461;52.440;13.540;2022-08-21T12:33:26;1.58;;;1.27;;
14738;SDS011;7461;52.440;13.540;2022-08-21T12:36:02;2.17;;;1.48;;
14738;SDS011;7461;52.440;13.540;2022-08-21T12:38:33;1.73;;;1.63;;
14738;SDS011;7461;52.440;13.540;2022-08-21T12:41:12;1.60;;;1.13;;
14738;SDS011;7461;52.440;13.540;2022-08-21T12:43:44;1.52;;;1.42;;
14738;SDS011;7461;52.440;13.540;2022-08-21T12:46:15;5.03;;;2.30;;
14738;SDS011;7461;52.440;13.540;2022-08-21T12:48:45;1.30;;;1.20;;
14738;SDS011;7461;52.440;13.540;2022-08-21T12:51:17;1.90;;;1.80;;
14738;SDS011;7461;52.440;13.540;2022-08-21T12:53:49;2.15;;;1.70;;
14738;SDS011;7461;52.440;13.540;2022-08-21T12:56:20;1.10;;;1.05;;
14738;SDS011;7461;52.440;13.540;2022-08-21T12:58:49;1.65;;;1.55;;
14738;SDS011;7461;52.440;13.540;2022-08-21T13:01:19;1.40;;;1.30;;
14738;SDS011;7461;52.440;13.540;2022-08-21T13:03:50;3.40;;;1.58;;
14738;SDS011;7461;52.440;13.540;2022-08-21T13:06:19;1.10;;;1.08;;
14738;SDS011;7461;52.440;13.540;2022-08-21T13:08:49;1.95;;;1.80;;
14738;SDS011;7461;52.440;13.540;2022-08-21T13:11:23;1.73;;;1.63;;
14738;SDS011;7461;52.440;13.540;2022-08-21T13:13:51;2.03;;;1.27;;
14738;SDS011;7461;52.440;13.540;2022-08-21T13:16:19;1.08;;;1.00;;
14738;SDS011;7461;52.440;13.540;2022-08-21T13:18:54;2.05;;;1.85;;
14738;SDS011;7461;52.440;13.540;2022-08-21T13:21:27;2.03;;;1.50;;
14738;SDS011;7461;52.440;13.540;2022-08-21T13:24:06;2.38;;;1.75;;
14738;SDS011;7461;52.440;13.540;2022-08-21T13:26:39;1.33;;;1.23;;
14738;SDS011;7461;52.440;13.540;2022-08-21T13:29:07;1.88;;;1.60;;
14738;SDS011;7461;52.440;13.540;2022-08-21T13:31:36;1.85;;;1.75;;
14738;SDS011;7461;52.440;13.540;2022-08-21T13:34:05;2.70;;;2.00;;
14738;SDS011;7461;52.440;13.540;2022-08-21T13:36:35;2.13;;;1.40;;
14738;SDS011;7461;52.440;13.540;2022-08-21T13:39:04;1.60;;;1.30;;
14738;SDS011;7461;52.440;13.540;2022-08-21T13:41:35;6.10;;;2.10;;
14738;SDS011;7461;52.440;13.540;2022-08-21T13:44:13;2.20;;;1.98;;
14738;SDS011;7461;52.440;13.540;2022-08-21T13:46:41;1.52;;;1.33;;
14738;SDS011;7461;52.440;13.540;2022-08-21T13:49:10;2.33;;;1.10;;
14738;SDS011;7461;52.440;13.540;2022-08-21T13:51:40;1.60;;;1.50;;
14738;SDS011;7461;52.440;13.540;2022-08-21T13:54:15;1.13;;;1.02;;
14738;SDS011;7461;52.440;13.540;2022-08-21T13:56:47;1.35;;;1.25;;
14738;SDS011;7461;52.440;13.540;2022-08-21T13:59:24;3.53;;;1.50;;
14738;SDS011;7461;52.440;13.540;2022-08-21T14:01:56;1.20;;;1.10;;
14738;SDS011;7461;52.440;13.540;2022-08-21T14:04:32;2.00;;;1.42;;
14738;SDS011;7461;52.440;13.540;2022-08-21T14:07:02;3.42;;;2.00;;
14738;SDS011;7461;52.440;13.540;2022-08-21T14:09:41;1.23;;;1.10;;
14738;SDS011;7461;52.440;13.540;2022-08-21T14:12:11;2.65;;;1.27;;
14738;SDS011;7461;52.440;13.540;2022-08-21T14:14:41;2.53;;;2.00;;
14738;SDS011;7461;52.440;13.540;2022-08-21T14:17:10;1.50;;;1.40;;
14738;SDS011;7461;52.440;13.540;2022-08-21T14:19:54;1.60;;;1.58;;
14738;SDS011;7461;52.440;13.540;2022-08-21T14:22:21;1.38;;;1.27;;
14738;SDS011;7461;52.440;13.540;2022-08-21T14:25:03;2.65;;;1.58;;
14738;SDS011;7461;52.440;13.540;2022-08-21T14:27:32;2.72;;;1.52;;
14738;SDS011;7461;52.440;13.540;2022-08-21T14:30:04;1.77;;;1.50;;
14738;SDS011;7461;52.440;13.540;2022-08-21T14:32:38;1.48;;;1.40;;
14738;SDS011;7461;52.440;13.540;2022-08-21T14:35:07;4.47;;;1.88;;
14738;SDS011;7461;52.440;13.540;2022-08-21T14:37:35;2.15;;;1.77;;
14738;SDS011;7461;52.440;13.540;2022-08-21T14:40:03;1.90;;;1.48;;
14738;SDS011;7461;52.440;13.540;2022-08-21T14:42:30;5.72;;;2.22;;
14738;SDS011;7461;52.440;13.540;2022-08-21T14:45:02;3.35;;;2.25;;
14738;SDS011;7461;52.440;13.540;2022-08-21T14:47:38;2.35;;;1.58;;
14738;SDS011;7461;52.440;13.540;2022-08-21T14:50:05;2.92;;;1.85;;
14738;SDS011;7461;52.440;13.540;2022-08-21T14:52:35;3.78;;;1.55;;
14738;SDS011;7461;52.440;13.540;2022-08-21T14:55:02;3.45;;;1.85;;
14738;SDS011;7461;52.440;13.540;2022-08-21T14:57:33;1.95;;;1.70;;
14738;SDS011;7461;52.440;13.540;2022-08-21T15:00:00;2.80;;;2.20;;
14738;SDS011;7461;52.440;13.540;2022-08-21T15:02:28;3.42;;;1.95;;